createdAt,value
2019-01-23T00:02:05.822Z,17.67
2019-01-23T00:04:35.840Z,18.73
2019-01-23T00:07:05.664Z,16.27
2019-01-23T00:09:35.534Z,18.13
2019-01-23T00:12:05.519Z,18.30
2019-01-23T00:14:35.603Z,18.43
2019-01-23T00:17:05.846Z,18.23
2019-01-23T00:19:35.833Z,19.43
2019-01-23T00:22:06.443Z,18.40
2019-01-23T00:24:36.308Z,17.30
2019-01-23T00:27:06.853Z,18.77
2019-01-23T00:29:36.902Z,17.83
2019-01-23T00:32:06.826Z,18.93
2019-01-23T00:34:36.773Z,17.27
2019-01-23T00:37:06.702Z,18.13
2019-01-23T00:39:37.877Z,16.37
2019-01-23T00:42:07.818Z,17.20
2019-01-23T00:44:37.618Z,18.43
2019-01-23T00:47:07.441Z,18.87
2019-01-23T00:49:37.305Z,17.33
2019-01-23T00:52:07.079Z,19.55
2019-01-23T00:54:37.062Z,19.13
2019-01-23T00:57:07.022Z,18.33
2019-01-23T00:59:36.834Z,17.60
2019-01-23T01:02:06.764Z,18.83
2019-01-23T01:04:36.998Z,18.70
2019-01-23T01:07:07.957Z,19.73
2019-01-23T01:09:38.828Z,18.77
2019-01-23T01:12:08.902Z,18.73
2019-01-23T01:14:38.780Z,20.08
2019-01-23T01:17:08.688Z,19.13
2019-01-23T01:19:38.603Z,17.87
2019-01-23T01:22:08.542Z,18.73
2019-01-23T01:24:38.339Z,18.60
2019-01-23T01:27:08.190Z,17.73
2019-01-23T01:29:38.148Z,17.33
2019-01-23T01:32:08.019Z,19.15
2019-01-23T01:34:37.791Z,20.40
2019-01-23T01:37:07.746Z,18.13
2019-01-23T01:39:37.633Z,18.40
2019-01-23T01:42:07.619Z,15.83
2019-01-23T01:44:37.564Z,18.13
2019-01-23T01:47:07.451Z,18.40
2019-01-23T01:49:37.462Z,17.43
2019-01-23T01:52:07.416Z,17.00
2019-01-23T01:54:37.585Z,16.23
2019-01-23T01:57:07.521Z,17.30
2019-01-23T01:59:37.391Z,18.27
2019-01-23T02:02:07.249Z,19.00
2019-01-23T02:04:37.403Z,18.40
2019-01-23T02:07:07.385Z,18.00
2019-01-23T02:09:37.327Z,16.37
2019-01-23T02:12:07.338Z,16.80
2019-01-23T02:14:37.932Z,16.73
2019-01-23T02:17:07.846Z,16.77
2019-01-23T02:19:37.940Z,17.37
2019-01-23T02:22:07.861Z,15.30
2019-01-23T02:24:37.880Z,15.00
2019-01-23T02:27:07.953Z,16.07
2019-01-23T02:29:37.729Z,17.30
2019-01-23T02:32:07.713Z,14.63
2019-01-23T02:34:37.751Z,18.17
2019-01-23T02:37:07.771Z,16.17
2019-01-23T02:39:37.709Z,16.33
2019-01-23T02:42:07.639Z,16.03
2019-01-23T02:44:37.621Z,16.50
2019-01-23T02:47:08.246Z,16.05
2019-01-23T02:49:38.269Z,15.70
2019-01-23T02:52:08.174Z,17.13
2019-01-23T02:54:38.307Z,15.98
2019-01-23T02:57:08.249Z,15.50
2019-01-23T02:59:38.140Z,16.40
2019-01-23T03:02:08.127Z,15.73
2019-01-23T03:04:38.164Z,15.10
2019-01-23T03:07:08.331Z,15.40
2019-01-23T03:09:38.280Z,15.85
2019-01-23T03:12:08.291Z,15.13
2019-01-23T03:14:38.680Z,14.67
2019-01-23T03:17:08.742Z,11.00
2019-01-23T03:19:39.106Z,15.35
2019-01-23T03:22:09.150Z,15.27
2019-01-23T03:24:40.381Z,16.30
2019-01-23T03:27:10.377Z,14.77
2019-01-23T03:29:40.906Z,15.20
2019-01-23T03:32:10.703Z,15.80
2019-01-23T03:34:40.984Z,17.17
2019-01-23T03:37:10.856Z,16.12
2019-01-23T03:39:40.898Z,16.43
2019-01-23T03:42:10.838Z,15.53
2019-01-23T03:44:40.876Z,16.70
2019-01-23T03:47:10.745Z,13.88
2019-01-23T03:49:40.966Z,16.60
2019-01-23T03:52:10.909Z,15.95
2019-01-23T03:54:41.047Z,17.13
2019-01-23T03:57:10.969Z,17.30
2019-01-23T03:59:41.010Z,17.10
2019-01-23T04:02:10.982Z,17.23
2019-01-23T04:04:40.842Z,15.60
2019-01-23T04:07:10.718Z,16.63
2019-01-23T04:09:40.655Z,18.77
2019-01-23T04:12:10.569Z,15.37
2019-01-23T04:14:40.373Z,17.17
2019-01-23T04:17:10.300Z,17.13
2019-01-23T04:19:40.106Z,16.40
2019-01-23T04:22:10.013Z,17.40
2019-01-23T04:24:39.836Z,18.90
2019-01-23T04:27:09.677Z,16.60
2019-01-23T04:29:40.009Z,18.73
2019-01-23T04:32:10.177Z,18.20
2019-01-23T04:34:40.018Z,15.20
2019-01-23T04:37:09.823Z,17.57
2019-01-23T04:39:39.604Z,16.73
2019-01-23T04:42:09.423Z,17.03
2019-01-23T04:44:39.240Z,18.13
2019-01-23T04:47:09.124Z,17.92
2019-01-23T04:49:41.401Z,19.00
2019-01-23T04:52:18.125Z,18.50
2019-01-23T04:54:47.896Z,16.77
2019-01-23T04:57:18.143Z,19.27
2019-01-23T04:59:48.103Z,19.40
2019-01-23T05:02:17.974Z,17.60
2019-01-23T05:04:47.882Z,19.20
2019-01-23T05:07:17.748Z,18.17
2019-01-23T05:09:47.666Z,19.77
2019-01-23T05:12:17.753Z,17.10
2019-01-23T05:14:47.587Z,18.87
2019-01-23T05:17:17.679Z,20.15
2019-01-23T05:19:47.640Z,18.83
2019-01-23T05:22:17.489Z,18.73
2019-01-23T05:24:47.322Z,18.60
2019-01-23T05:27:17.217Z,18.70
2019-01-23T05:29:54.677Z,19.10
2019-01-23T05:32:19.113Z,18.57
2019-01-23T05:34:49.010Z,19.63
2019-01-23T05:37:18.871Z,17.20
2019-01-23T05:39:48.741Z,18.73
2019-01-23T05:42:19.015Z,19.07
2019-01-23T05:44:58.739Z,19.40
2019-01-23T05:47:28.846Z,18.70
2019-01-23T05:50:10.724Z,21.07
2019-01-23T05:52:40.624Z,17.10
2019-01-23T05:55:11.651Z,16.93
2019-01-23T05:57:41.698Z,18.53
2019-01-23T06:00:15.178Z,17.17
2019-01-23T06:02:45.276Z,18.67
2019-01-23T06:05:17.005Z,18.07
2019-01-23T06:07:47.328Z,18.93
2019-01-23T06:10:17.233Z,18.70
2019-01-23T06:12:47.734Z,18.57
2019-01-23T06:15:17.884Z,18.70
2019-01-23T06:17:49.078Z,17.27
2019-01-23T06:20:21.741Z,19.80
2019-01-23T06:22:51.547Z,20.37
2019-01-23T06:25:21.973Z,20.10
2019-01-23T06:27:57.249Z,18.10
2019-01-23T06:30:29.055Z,19.13
2019-01-23T06:32:59.101Z,19.63
2019-01-23T06:35:29.200Z,19.15
2019-01-23T06:37:59.307Z,19.60
2019-01-23T06:40:30.552Z,18.83
2019-01-23T06:43:00.778Z,19.73
2019-01-23T06:45:31.159Z,20.53
2019-01-23T06:48:02.501Z,18.53
2019-01-23T06:50:32.554Z,19.13
2019-01-23T06:53:02.676Z,19.87
2019-01-23T06:55:33.120Z,20.83
2019-01-23T06:58:03.146Z,19.37
2019-01-23T07:00:33.450Z,19.80
2019-01-23T07:03:04.556Z,19.97
2019-01-23T07:05:34.945Z,20.37
2019-01-23T07:08:05.413Z,20.80
2019-01-23T07:10:35.503Z,19.10
2019-01-23T07:13:05.823Z,18.60
2019-01-23T07:15:35.871Z,20.37
2019-01-23T07:18:06.303Z,19.07
2019-01-23T07:20:36.851Z,19.77
2019-01-23T07:23:06.984Z,20.57
2019-01-23T07:25:38.492Z,19.15
2019-01-23T07:28:10.175Z,20.83
2019-01-23T07:30:42.048Z,18.73
2019-01-23T07:33:20.039Z,18.87
2019-01-23T07:35:50.120Z,20.17
2019-01-23T07:38:20.260Z,19.93
2019-01-23T07:40:51.269Z,20.37
2019-01-23T07:43:21.445Z,21.20
2019-01-23T07:45:51.440Z,19.40
2019-01-23T07:48:21.235Z,18.77
2019-01-23T07:50:53.334Z,20.37
2019-01-23T07:53:24.196Z,18.55
2019-01-23T07:55:54.154Z,18.13
2019-01-23T07:58:24.088Z,18.97
2019-01-23T08:00:54.098Z,21.10
2019-01-23T08:03:24.310Z,20.27
2019-01-23T08:05:54.849Z,19.37
2019-01-23T08:08:24.782Z,18.77
2019-01-23T08:10:54.744Z,19.23
2019-01-23T08:13:24.896Z,19.60
2019-01-23T08:15:55.236Z,17.97
2019-01-23T08:18:25.768Z,18.15
2019-01-23T08:20:55.683Z,18.80
2019-01-23T08:23:25.642Z,18.33
2019-01-23T08:25:55.687Z,20.47
2019-01-23T08:28:25.605Z,18.83
2019-01-23T08:30:55.671Z,19.70
2019-01-23T08:33:25.596Z,19.45
2019-01-23T08:35:55.519Z,18.97
2019-01-23T08:38:25.413Z,19.13
2019-01-23T08:40:55.453Z,18.63
2019-01-23T08:43:25.867Z,19.43
2019-01-23T08:45:56.191Z,18.80
2019-01-23T08:48:25.994Z,20.53
2019-01-23T08:50:55.932Z,19.43
2019-01-23T08:53:25.924Z,18.80
2019-01-23T08:55:55.773Z,19.37
2019-01-23T08:58:32.258Z,20.20
2019-01-23T09:01:00.529Z,19.00
2019-01-23T09:03:30.286Z,19.27
2019-01-23T09:06:01.896Z,20.05
2019-01-23T09:08:37.577Z,20.30
2019-01-23T09:11:05.556Z,20.40
2019-01-23T09:13:38.577Z,17.70
2019-01-23T09:16:08.556Z,19.13
2019-01-23T09:18:39.859Z,19.17
2019-01-23T09:21:11.946Z,19.23
2019-01-23T09:23:42.360Z,18.87
2019-01-23T09:26:12.520Z,21.20
2019-01-23T09:28:42.794Z,19.53
2019-01-23T09:31:47.275Z,20.13
2019-01-23T09:34:56.550Z,18.87
2019-01-23T09:37:55.165Z,19.93
2019-01-23T09:40:40.417Z,20.20
2019-01-23T09:43:28.617Z,21.17
2019-01-23T09:46:51.888Z,20.10
2019-01-23T09:49:46.934Z,20.67
2019-01-23T09:53:00.177Z,21.33
2019-01-23T09:55:32.924Z,21.30
2019-01-23T09:58:12.783Z,20.83
2019-01-23T10:00:43.781Z,20.48
2019-01-23T10:03:13.717Z,20.17
2019-01-23T10:05:43.635Z,21.10
2019-01-23T10:08:13.489Z,20.23
2019-01-23T10:10:44.113Z,18.77
2019-01-23T10:13:13.866Z,19.40
2019-01-23T10:15:50.621Z,20.10
2019-01-23T10:18:20.545Z,19.40
2019-01-23T10:20:50.337Z,21.40
2019-01-23T10:23:20.315Z,18.67
2019-01-23T10:25:50.361Z,21.77
2019-01-23T10:28:20.307Z,20.03
2019-01-23T10:30:50.114Z,19.00
2019-01-23T10:33:19.810Z,20.33
2019-01-23T10:35:50.036Z,20.73
2019-01-23T10:38:20.914Z,19.82
2019-01-23T10:40:50.820Z,18.82
2019-01-23T10:43:20.708Z,20.15
2019-01-23T10:45:50.947Z,19.77
2019-01-23T10:48:20.871Z,20.80
2019-01-23T10:50:51.080Z,20.63
2019-01-23T10:53:20.982Z,20.67
2019-01-23T10:55:50.796Z,19.77
2019-01-23T10:58:20.638Z,21.10
2019-01-23T11:00:50.919Z,19.87
2019-01-23T11:03:20.917Z,19.33
2019-01-23T11:05:51.061Z,21.70
2019-01-23T11:08:20.960Z,19.50
2019-01-23T11:10:50.782Z,20.85
2019-01-23T11:13:20.685Z,20.13
2019-01-23T11:15:50.651Z,20.25
2019-01-23T11:18:20.647Z,20.30
2019-01-23T11:20:51.144Z,18.75
2019-01-23T11:23:21.759Z,18.83
2019-01-23T11:25:51.652Z,21.43
2019-01-23T11:28:21.579Z,18.97
2019-01-23T11:30:51.497Z,19.73
2019-01-23T11:33:21.399Z,19.40
2019-01-23T11:35:51.412Z,18.63
2019-01-23T11:38:21.473Z,19.20
2019-01-23T11:40:51.487Z,19.57
2019-01-23T11:43:21.377Z,17.60
2019-01-23T11:45:51.348Z,19.27
2019-01-23T11:48:21.296Z,20.25
2019-01-23T11:50:51.183Z,19.17
2019-01-23T11:53:21.029Z,18.93
2019-01-23T11:55:50.967Z,17.50
2019-01-23T11:58:20.951Z,18.93
2019-01-23T12:00:51.423Z,19.47
2019-01-23T12:03:21.272Z,24.07
2019-01-23T12:05:51.236Z,19.62
2019-01-23T12:08:21.227Z,19.67
2019-01-23T12:10:50.968Z,18.50
2019-01-23T12:13:20.933Z,18.43
2019-01-23T12:15:50.827Z,20.03
2019-01-23T12:18:20.783Z,18.23
2019-01-23T12:20:50.813Z,18.60
2019-01-23T12:23:20.858Z,18.87
2019-01-23T12:25:52.694Z,17.83
2019-01-23T12:28:22.681Z,17.97
2019-01-23T12:30:52.755Z,18.10
2019-01-23T12:33:22.934Z,18.77
2019-01-23T12:35:53.887Z,18.77
2019-01-23T12:38:23.964Z,19.45
2019-01-23T12:40:53.795Z,18.37
2019-01-23T12:43:26.792Z,19.40
2019-01-23T12:45:56.988Z,18.87
2019-01-23T12:48:31.504Z,17.87
2019-01-23T12:51:03.165Z,20.35
2019-01-23T12:53:34.576Z,18.77
2019-01-23T12:56:05.023Z,19.83
2019-01-23T12:58:35.343Z,20.63
2019-01-23T13:01:05.652Z,19.63
2019-01-23T13:03:35.553Z,20.67
2019-01-23T13:06:05.921Z,19.27
2019-01-23T13:08:39.031Z,17.63
2019-01-23T13:11:09.231Z,19.53
2019-01-23T13:13:39.985Z,20.50
2019-01-23T13:16:10.360Z,21.13
2019-01-23T13:18:40.471Z,21.07
2019-01-23T13:21:13.267Z,20.63
2019-01-23T13:23:44.017Z,19.57
2019-01-23T13:26:14.010Z,20.50
2019-01-23T13:28:57.717Z,20.97
2019-01-23T13:31:27.742Z,20.33
2019-01-23T13:33:57.573Z,21.10
2019-01-23T13:36:27.504Z,21.13
2019-01-23T13:38:58.637Z,20.83
2019-01-23T13:41:28.692Z,20.67
2019-01-23T13:43:58.877Z,20.30
2019-01-23T13:46:28.756Z,22.60
2019-01-23T13:48:58.589Z,24.30
2019-01-23T13:51:33.510Z,15.30
2019-01-23T13:54:03.895Z,20.53
2019-01-23T13:56:33.704Z,19.77
2019-01-23T13:59:03.524Z,17.17
2019-01-23T14:01:33.478Z,21.83
2019-01-23T14:04:03.413Z,19.87
2019-01-23T14:06:33.354Z,19.25
2019-01-23T14:09:05.854Z,20.10
2019-01-23T14:11:37.523Z,18.35
2019-01-23T14:14:12.019Z,20.37
2019-01-23T14:16:42.156Z,20.37
2019-01-23T14:19:12.171Z,20.30
2019-01-23T14:21:42.014Z,19.67
2019-01-23T14:24:13.027Z,18.43
2019-01-23T14:26:42.997Z,17.63
2019-01-23T14:29:12.919Z,20.23
2019-01-23T14:31:43.209Z,20.23
2019-01-23T14:34:13.161Z,19.70
2019-01-23T14:36:43.079Z,20.47
2019-01-23T14:39:12.940Z,19.77
2019-01-23T14:41:42.764Z,20.10
2019-01-23T14:44:12.649Z,18.55
2019-01-23T14:46:42.523Z,17.67
2019-01-23T14:49:12.434Z,19.35
2019-01-23T14:51:43.316Z,18.33
2019-01-23T14:54:13.128Z,18.30
2019-01-23T14:56:43.081Z,19.70
2019-01-23T14:59:13.220Z,19.20
2019-01-23T15:01:43.243Z,20.32
2019-01-23T15:04:13.177Z,20.27
2019-01-23T15:06:43.161Z,19.23
2019-01-23T15:09:14.063Z,19.40
2019-01-23T15:11:43.966Z,19.42
2019-01-23T15:14:14.015Z,18.50
2019-01-23T15:16:44.427Z,18.90
2019-01-23T15:19:16.432Z,18.63
2019-01-23T15:21:47.294Z,18.57
2019-01-23T15:24:50.043Z,18.13
2019-01-23T15:27:31.364Z,17.47
2019-01-23T15:30:03.219Z,20.20
2019-01-23T15:32:33.363Z,19.00
2019-01-23T15:35:03.338Z,18.33
2019-01-23T15:37:36.907Z,19.23
2019-01-23T15:40:17.740Z,19.90
2019-01-23T15:42:48.234Z,19.47
2019-01-23T15:45:18.817Z,19.13
2019-01-23T15:47:48.791Z,19.77
2019-01-23T15:50:22.284Z,17.27
2019-01-23T15:52:52.539Z,19.33
2019-01-23T15:55:24.445Z,14.87
2019-01-23T15:57:54.458Z,19.23
2019-01-23T16:00:29.485Z,19.40
2019-01-23T16:02:59.762Z,18.27
2019-01-23T16:05:30.138Z,18.92
2019-01-23T16:08:01.504Z,18.23
2019-01-23T16:10:31.525Z,19.42
2019-01-23T16:13:03.089Z,17.77
2019-01-23T16:15:33.986Z,20.68
2019-01-23T16:18:04.679Z,18.80
2019-01-23T16:20:34.757Z,17.32
2019-01-23T16:23:06.869Z,15.47
2019-01-23T16:25:36.783Z,19.00
2019-01-23T16:28:06.647Z,19.13
2019-01-23T16:30:39.655Z,19.07
2019-01-23T16:33:09.667Z,18.73
2019-01-23T16:35:39.916Z,15.93
2019-01-23T16:38:11.211Z,20.03
2019-01-23T16:40:42.116Z,19.93
2019-01-23T16:43:12.139Z,17.43
2019-01-23T16:45:42.251Z,15.30
2019-01-23T16:48:12.134Z,16.60
2019-01-23T16:50:42.001Z,19.53
2019-01-23T16:53:11.827Z,20.30
2019-01-23T16:55:42.383Z,19.53
2019-01-23T16:58:12.486Z,23.83
2019-01-23T17:00:42.751Z,20.23
2019-01-23T17:03:13.141Z,20.93
2019-01-23T17:05:43.430Z,19.97
2019-01-23T17:08:13.537Z,19.73
2019-01-23T17:10:43.471Z,19.60
2019-01-23T17:13:13.537Z,17.70
2019-01-23T17:15:43.766Z,19.40
2019-01-23T17:18:13.828Z,18.87
2019-01-23T17:20:46.455Z,20.47
2019-01-23T17:23:16.514Z,18.43
2019-01-23T17:25:46.501Z,20.60
2019-01-23T17:28:17.021Z,19.53
2019-01-23T17:30:47.002Z,16.03
2019-01-23T17:33:16.903Z,20.97
2019-01-23T17:35:46.863Z,19.23
2019-01-23T17:38:16.883Z,18.70
2019-01-23T17:40:46.832Z,16.53
2019-01-23T17:43:17.097Z,19.80
2019-01-23T17:45:47.190Z,18.60
2019-01-23T17:48:17.191Z,18.07
2019-01-23T17:50:47.292Z,16.70
2019-01-23T17:53:17.279Z,17.50
2019-01-23T17:55:47.470Z,17.97
2019-01-23T17:58:17.417Z,18.95
2019-01-23T18:00:55.030Z,18.10
2019-01-23T18:03:24.934Z,18.50
2019-01-23T18:05:54.754Z,17.30
2019-01-23T18:08:24.987Z,20.07
2019-01-23T18:10:55.070Z,18.80
2019-01-23T18:13:25.128Z,18.40
2019-01-23T18:15:58.852Z,18.90
2019-01-23T18:18:28.766Z,19.97
2019-01-23T18:20:59.112Z,18.60
2019-01-23T18:23:28.978Z,18.07
2019-01-23T18:25:59.244Z,19.20
2019-01-23T18:28:29.167Z,17.93
2019-01-23T18:31:07.696Z,18.13
2019-01-23T18:34:00.459Z,17.53
2019-01-23T18:37:08.429Z,19.10
2019-01-23T18:40:15.595Z,18.53
2019-01-23T18:43:12.928Z,19.25
2019-01-23T18:46:10.648Z,18.67
2019-01-23T18:49:20.161Z,19.62
2019-01-23T18:52:04.467Z,18.95
2019-01-23T18:54:34.262Z,18.50
2019-01-23T18:57:05.362Z,18.50
2019-01-23T18:59:35.309Z,19.17
2019-01-23T19:02:05.819Z,20.03
2019-01-23T19:04:35.840Z,19.77
2019-01-23T19:07:05.797Z,18.92
2019-01-23T19:09:36.344Z,19.40
2019-01-23T19:12:08.473Z,18.07
2019-01-23T19:14:38.659Z,19.00
2019-01-23T19:17:09.355Z,22.15
2019-01-23T19:19:39.338Z,19.67
2019-01-23T19:22:09.568Z,19.63
2019-01-23T19:24:40.042Z,17.93
2019-01-23T19:27:10.291Z,20.00
2019-01-23T19:29:40.227Z,21.75
2019-01-23T19:32:10.225Z,19.35
2019-01-23T19:34:40.396Z,18.95
2019-01-23T19:37:10.563Z,19.10
2019-01-23T19:39:42.283Z,20.17
2019-01-23T19:42:12.544Z,19.62
2019-01-23T19:44:42.432Z,21.02
2019-01-23T19:47:12.802Z,19.70
2019-01-23T19:49:44.804Z,20.47
2019-01-23T19:52:16.937Z,19.27
2019-01-23T19:54:49.396Z,20.43
2019-01-23T19:57:19.417Z,19.47
2019-01-23T19:59:49.915Z,19.60
2019-01-23T20:02:19.958Z,19.97
2019-01-23T20:04:49.900Z,20.23
2019-01-23T20:07:22.929Z,19.30
2019-01-23T20:09:53.053Z,20.00
2019-01-23T20:12:23.066Z,20.37
2019-01-23T20:14:55.848Z,20.63
2019-01-23T20:17:25.952Z,20.93
2019-01-23T20:19:56.549Z,19.30
2019-01-23T20:22:27.851Z,20.93
2019-01-23T20:25:00.775Z,19.63
2019-01-23T20:27:31.343Z,17.40
2019-01-23T20:30:01.553Z,21.30
2019-01-23T20:32:32.186Z,22.80
2019-01-23T20:35:02.324Z,20.10
2019-01-23T20:37:32.279Z,21.73
2019-01-23T20:40:02.319Z,22.00
2019-01-23T20:42:32.397Z,21.40
2019-01-23T20:45:03.151Z,19.57
2019-01-23T20:47:33.120Z,20.67
2019-01-23T20:50:03.221Z,21.63
2019-01-23T20:52:33.271Z,21.40
2019-01-23T20:55:03.340Z,21.17
2019-01-23T20:57:33.296Z,20.23
2019-01-23T21:00:12.331Z,21.40
2019-01-23T21:02:42.703Z,20.67
2019-01-23T21:05:13.805Z,20.33
2019-01-23T21:07:44.146Z,20.90
2019-01-23T21:10:15.344Z,20.53
2019-01-23T21:12:46.445Z,19.97
2019-01-23T21:15:31.825Z,20.97
2019-01-23T21:18:02.514Z,21.10
2019-01-23T21:20:35.477Z,21.73
2019-01-23T21:23:14.782Z,21.87
2019-01-23T21:25:44.856Z,20.80
2019-01-23T21:28:14.865Z,21.05
2019-01-23T21:30:44.894Z,21.33
2019-01-23T21:33:15.055Z,21.10
2019-01-23T21:35:45.025Z,21.37
2019-01-23T21:38:15.256Z,21.57
2019-01-23T21:40:45.216Z,21.13
2019-01-23T21:43:16.199Z,20.07
2019-01-23T21:45:52.420Z,19.83
2019-01-23T21:48:23.795Z,20.77
2019-01-23T21:50:55.795Z,23.13
2019-01-23T21:53:25.975Z,21.03
2019-01-23T21:55:55.814Z,21.48
2019-01-23T21:58:25.673Z,21.37
2019-01-23T22:00:57.912Z,20.83
2019-01-23T22:03:28.032Z,21.52
2019-01-23T22:05:58.839Z,21.27
2019-01-23T22:08:29.274Z,22.23
2019-01-23T22:10:59.521Z,21.73
2019-01-23T22:13:30.107Z,23.30
2019-01-23T22:16:01.092Z,20.97
2019-01-23T22:18:34.651Z,20.65
2019-01-23T22:21:05.692Z,21.80
2019-01-23T22:23:35.716Z,21.47
2019-01-23T22:26:08.511Z,23.30
2019-01-23T22:28:38.622Z,21.77
2019-01-23T22:31:08.775Z,21.87
2019-01-23T22:33:38.648Z,22.13
2019-01-23T22:36:08.889Z,20.90
2019-01-23T22:38:38.689Z,21.73
2019-01-23T22:41:08.743Z,20.50
2019-01-23T22:43:38.767Z,23.30
2019-01-23T22:46:08.747Z,21.33
2019-01-23T22:48:38.730Z,23.43
2019-01-23T22:51:08.820Z,22.13
2019-01-23T22:53:38.829Z,22.60
2019-01-23T22:56:09.045Z,21.97
2019-01-23T22:58:39.009Z,21.33
2019-01-23T23:01:24.594Z,22.50
2019-01-23T23:03:54.631Z,21.73
2019-01-23T23:06:24.581Z,22.03
2019-01-23T23:08:55.664Z,22.57
2019-01-23T23:11:25.771Z,21.00
2019-01-23T23:13:55.994Z,19.77
2019-01-23T23:16:25.909Z,21.87
2019-01-23T23:18:56.011Z,20.82
2019-01-23T23:21:26.297Z,23.00
2019-01-23T23:23:56.561Z,22.17
2019-01-23T23:26:26.496Z,21.80
2019-01-23T23:28:56.479Z,21.77
2019-01-23T23:31:26.462Z,22.33
2019-01-23T23:33:56.803Z,21.80
2019-01-23T23:36:26.839Z,19.77
2019-01-23T23:38:57.043Z,20.30
2019-01-23T23:41:26.840Z,21.77
2019-01-23T23:43:56.871Z,21.97
2019-01-23T23:46:26.784Z,20.30
2019-01-23T23:48:56.610Z,21.37
2019-01-23T23:51:26.525Z,21.70
2019-01-23T23:53:56.452Z,21.67
2019-01-23T23:56:26.617Z,21.50
2019-01-23T23:58:56.617Z,21.23
